sensor_id;sensor_type;location;lat;lon;timestamp;pressure;altitude;pressure_sealevel;temperature;humidity
60852;BME280;48553;50.766;2.900;2023-04-08T00:01:47;101633.44;;;8.78;77.84
60852;BME280;48553;50.766;2.900;2023-04-08T00:04:47;101632.44;;;8.74;77.79
60852;BME280;48553;50.766;2.900;2023-04-08T00:07:48;101644.47;;;8.73;77.65
60852;BME280;48553;50.766;2.900;2023-04-08T00:10:48;101641.53;;;8.70;77.68
60852;BME280;48553;50.766;2.900;2023-04-08T00:13:48;101647.31;;;8.68;77.84
60852;BME280;48553;50.766;2.900;2023-04-08T00:16:49;101639.09;;;8.68;77.78
60852;BME280;48553;50.766;2.900;2023-04-08T00:19:50;101636.47;;;8.63;77.96
60852;BME280;48553;50.766;2.900;2023-04-08T00:22:51;101632.09;;;8.62;77.84
60852;BME280;48553;50.766;2.900;2023-04-08T00:25:51;101629.97;;;8.59;77.80
60852;BME280;48553;50.766;2.900;2023-04-08T00:28:52;101626.44;;;8.59;77.65
60852;BME280;48553;50.766;2.900;2023-04-08T00:31:52;101632.19;;;8.57;77.81
60852;BME280;48553;50.766;2.900;2023-04-08T00:34:53;101630.88;;;8.54;77.38
60852;BME280;48553;50.766;2.900;2023-04-08T00:37:54;101631.47;;;8.51;77.67
60852;BME280;48553;50.766;2.900;2023-04-08T00:40:54;101637.75;;;8.52;77.84
60852;BME280;48553;50.766;2.900;2023-04-08T00:43:55;101622.78;;;8.49;77.57
60852;BME280;48553;50.766;2.900;2023-04-08T00:46:55;101619.22;;;8.49;77.73
60852;BME280;48553;50.766;2.900;2023-04-08T00:49:56;101627.41;;;8.49;77.87
60852;BME280;48553;50.766;2.900;2023-04-08T00:52:56;101630.47;;;8.47;77.96
60852;BME280;48553;50.766;2.900;2023-04-08T00:55:57;101629.72;;;8.42;77.96
60852;BME280;48553;50.766;2.900;2023-04-08T00:58:59;101640.66;;;8.42;77.90
60852;BME280;48553;50.766;2.900;2023-04-08T01:09:32;101631.91;;;8.40;78.37
60852;BME280;48553;50.766;2.900;2023-04-08T01:12:40;101636.34;;;8.35;78.40
60852;BME280;48553;50.766;2.900;2023-04-08T01:15:43;101639.06;;;8.35;78.09
60852;BME280;48553;50.766;2.900;2023-04-08T01:18:45;101636.06;;;8.37;78.15
60852;BME280;48553;50.766;2.900;2023-04-08T01:21:47;101639.91;;;8.36;78.16
60852;BME280;48553;50.766;2.900;2023-04-08T01:24:49;101647.28;;;8.35;78.59
60852;BME280;48553;50.766;2.900;2023-04-08T01:27:54;101638.59;;;8.33;78.27
60852;BME280;48553;50.766;2.900;2023-04-08T01:30:58;101645.16;;;8.32;78.70
60852;BME280;48553;50.766;2.900;2023-04-08T01:34:01;101644.34;;;8.32;78.41
60852;BME280;48553;50.766;2.900;2023-04-08T01:37:04;101641.91;;;8.30;78.47
60852;BME280;48553;50.766;2.900;2023-04-08T01:40:06;101642.19;;;8.29;78.85
60852;BME280;48553;50.766;2.900;2023-04-08T01:43:09;101646.28;;;8.31;79.19
60852;BME280;48553;50.766;2.900;2023-04-08T01:46:11;101652.81;;;8.30;78.80
60852;BME280;48553;50.766;2.900;2023-04-08T01:49:13;101648.47;;;8.29;78.91
60852;BME280;48553;50.766;2.900;2023-04-08T01:52:15;101651.78;;;8.26;79.07
60852;BME280;48553;50.766;2.900;2023-04-08T01:55:17;101657.25;;;8.26;78.99
60852;BME280;48553;50.766;2.900;2023-04-08T01:58:20;101649.91;;;8.27;79.07
60852;BME280;48553;50.766;2.900;2023-04-08T02:01:21;101653.19;;;8.24;78.77
60852;BME280;48553;50.766;2.900;2023-04-08T02:04:24;101654.84;;;8.25;78.67
60852;BME280;48553;50.766;2.900;2023-04-08T02:07:25;101649.66;;;8.23;78.86
60852;BME280;48553;50.766;2.900;2023-04-08T02:10:25;101650.28;;;8.20;79.30
60852;BME280;48553;50.766;2.900;2023-04-08T02:13:26;101662.00;;;8.21;79.25
60852;BME280;48553;50.766;2.900;2023-04-08T02:16:38;101660.34;;;8.20;79.26
60852;BME280;48553;50.766;2.900;2023-04-08T02:20:02;101660.06;;;8.21;79.10
60852;BME280;48553;50.766;2.900;2023-04-08T02:23:26;101649.44;;;8.20;79.23
60852;BME280;48553;50.766;2.900;2023-04-08T02:26:28;101655.22;;;8.18;79.08
60852;BME280;48553;50.766;2.900;2023-04-08T02:29:31;101655.50;;;8.16;79.25
60852;BME280;48553;50.766;2.900;2023-04-08T02:32:33;101662.09;;;8.15;79.22
60852;BME280;48553;50.766;2.900;2023-04-08T02:35:35;101657.94;;;8.18;79.30
60852;BME280;48553;50.766;2.900;2023-04-08T02:38:35;101665.63;;;8.16;79.44
60852;BME280;48553;50.766;2.900;2023-04-08T02:41:36;101666.72;;;8.15;79.65
60852;BME280;48553;50.766;2.900;2023-04-08T02:44:36;101671.88;;;8.16;79.53
60852;BME280;48553;50.766;2.900;2023-04-08T02:47:37;101672.69;;;8.17;79.41
60852;BME280;48553;50.766;2.900;2023-04-08T02:50:37;101673.81;;;8.16;79.51
60852;BME280;48553;50.766;2.900;2023-04-08T02:53:39;101668.63;;;8.14;79.77
60852;BME280;48553;50.766;2.900;2023-04-08T02:56:39;101670.28;;;8.15;79.48
60852;BME280;48553;50.766;2.900;2023-04-08T02:59:40;101668.63;;;8.14;80.04
60852;BME280;48553;50.766;2.900;2023-04-08T03:02:41;101673.81;;;8.16;79.87
60852;BME280;48553;50.766;2.900;2023-04-08T03:05:41;101676.81;;;8.14;79.68
60852;BME280;48553;50.766;2.900;2023-04-08T03:08:42;101682.59;;;8.13;79.76
60852;BME280;48553;50.766;2.900;2023-04-08T03:11:42;101678.75;;;8.14;79.88
60852;BME280;48553;50.766;2.900;2023-04-08T03:14:43;101673.00;;;8.15;79.86
60852;BME280;48553;50.766;2.900;2023-04-08T03:17:44;101682.28;;;8.14;80.08
60852;BME280;48553;50.766;2.900;2023-04-08T03:20:44;101685.53;;;8.16;80.18
60852;BME280;48553;50.766;2.900;2023-04-08T03:23:45;101676.31;;;8.12;80.40
60852;BME280;48553;50.766;2.900;2023-04-08T03:26:46;101682.09;;;8.11;80.44
60852;BME280;48553;50.766;2.900;2023-04-08T03:29:46;101679.56;;;8.14;80.24
60852;BME280;48553;50.766;2.900;2023-04-08T03:32:46;101673.28;;;8.14;80.30
60852;BME280;48553;50.766;2.900;2023-04-08T03:35:47;101684.28;;;8.09;80.29
60852;BME280;48553;50.766;2.900;2023-04-08T03:38:47;101681.25;;;8.10;80.22
60852;BME280;48553;50.766;2.900;2023-04-08T03:41:48;101684.81;;;8.11;80.27
60852;BME280;48553;50.766;2.900;2023-04-08T03:44:48;101685.91;;;8.10;80.31
60852;BME280;48553;50.766;2.900;2023-04-08T03:47:49;101681.25;;;8.10;80.29
60852;BME280;48553;50.766;2.900;2023-04-08T03:50:49;101680.72;;;8.08;80.51
60852;BME280;48553;50.766;2.900;2023-04-08T03:53:50;101684.81;;;8.11;80.90
60852;BME280;48553;50.766;2.900;2023-04-08T03:56:50;101680.72;;;8.08;80.39
60852;BME280;48553;50.766;2.900;2023-04-08T03:59:50;101682.66;;;8.08;80.84
60852;BME280;48553;50.766;2.900;2023-04-08T04:02:51;101680.72;;;8.08;80.61
60852;BME280;48553;50.766;2.900;2023-04-08T04:05:51;101683.19;;;8.10;80.84
60852;BME280;48553;50.766;2.900;2023-04-08T04:08:53;101689.25;;;8.07;80.94
60852;BME280;48553;50.766;2.900;2023-04-08T04:11:54;101682.38;;;8.09;80.94
60852;BME280;48553;50.766;2.900;2023-04-08T04:14:54;101683.19;;;8.10;81.00
60852;BME280;48553;50.766;2.900;2023-04-08T04:17:55;101680.72;;;8.08;81.16
60852;BME280;48553;50.766;2.900;2023-04-08T04:20:55;101677.00;;;8.04;80.91
60852;BME280;48553;50.766;2.900;2023-04-08T04:23:56;101678.31;;;8.07;81.21
60852;BME280;48553;50.766;2.900;2023-04-08T04:26:56;101670.94;;;8.07;81.20
60852;BME280;48553;50.766;2.900;2023-04-08T04:29:56;101681.06;;;8.07;81.15
60852;BME280;48553;50.766;2.900;2023-04-08T04:32:57;101688.13;;;8.08;81.05
60852;BME280;48553;50.766;2.900;2023-04-08T04:35:57;101695.78;;;8.06;81.18
60852;BME280;48553;50.766;2.900;2023-04-08T04:38:58;101697.44;;;8.07;81.28
60852;BME280;48553;50.766;2.900;2023-04-08T04:41:58;101697.72;;;8.05;81.40
60852;BME280;48553;50.766;2.900;2023-04-08T04:44:59;101705.09;;;8.05;81.61
60852;BME280;48553;50.766;2.900;2023-04-08T04:47:59;101701.84;;;8.03;81.71
60852;BME280;48553;50.766;2.900;2023-04-08T04:51:00;101703.19;;;8.05;81.60
60852;BME280;48553;50.766;2.900;2023-04-08T04:54:02;101702.38;;;8.05;81.41
60852;BME280;48553;50.766;2.900;2023-04-08T04:57:02;101699.63;;;8.05;81.53
60852;BME280;48553;50.766;2.900;2023-04-08T05:00:03;101707.84;;;8.05;81.70
60852;BME280;48553;50.766;2.900;2023-04-08T05:03:04;101708.13;;;8.03;81.67
60852;BME280;48553;50.766;2.900;2023-04-08T05:06:04;101709.16;;;8.07;81.93
60852;BME280;48553;50.766;2.900;2023-04-08T05:09:05;101713.81;;;8.07;81.80
60852;BME280;48553;50.766;2.900;2023-04-08T05:12:05;101712.78;;;8.03;81.96
60852;BME280;48553;50.766;2.900;2023-04-08T05:15:06;101720.69;;;8.04;81.90
60852;BME280;48553;50.766;2.900;2023-04-08T05:18:06;101721.47;;;8.05;81.97
60852;BME280;48553;50.766;2.900;2023-04-08T05:21:07;101717.94;;;8.04;81.76
60852;BME280;48553;50.766;2.900;2023-04-08T05:24:07;101721.75;;;8.03;81.77
60852;BME280;48553;50.766;2.900;2023-04-08T05:27:08;101737.09;;;7.99;81.96
60852;BME280;48553;50.766;2.900;2023-04-08T05:30:08;101731.06;;;8.02;81.81
60852;BME280;48553;50.766;2.900;2023-04-08T05:33:09;101742.00;;;8.02;82.21
60852;BME280;48553;50.766;2.900;2023-04-08T05:36:10;101745.25;;;8.04;81.77
60852;BME280;48553;50.766;2.900;2023-04-08T05:39:11;101739.25;;;8.02;81.88
60852;BME280;48553;50.766;2.900;2023-04-08T05:42:11;101752.09;;;8.02;82.20
60852;BME280;48553;50.766;2.900;2023-04-08T05:45:13;101756.44;;;8.03;81.93
60852;BME280;48553;50.766;2.900;2023-04-08T05:48:13;101758.06;;;8.04;82.35
60852;BME280;48553;50.766;2.900;2023-04-08T05:51:14;101768.16;;;8.03;82.23
60852;BME280;48553;50.766;2.900;2023-04-08T05:54:15;101765.16;;;8.05;82.09
60852;BME280;48553;50.766;2.900;2023-04-08T05:57:15;101771.13;;;8.07;82.00
60852;BME280;48553;50.766;2.900;2023-04-08T06:00:16;101772.22;;;8.06;82.15
60852;BME280;48553;50.766;2.900;2023-04-08T06:03:16;101769.81;;;8.04;82.22
60852;BME280;48553;50.766;2.900;2023-04-08T06:06:17;101775.28;;;8.04;82.04
60852;BME280;48553;50.766;2.900;2023-04-08T06:09:17;101774.16;;;8.05;81.88
60852;BME280;48553;50.766;2.900;2023-04-08T06:12:18;101774.16;;;8.05;82.40
60852;BME280;48553;50.766;2.900;2023-04-08T06:15:18;101778.81;;;8.05;82.16
60852;BME280;48553;50.766;2.900;2023-04-08T06:18:18;101781.53;;;8.05;82.52
60852;BME280;48553;50.766;2.900;2023-04-08T06:21:19;101783.47;;;8.04;82.36
60852;BME280;48553;50.766;2.900;2023-04-08T06:24:19;101786.41;;;8.08;82.23
60852;BME280;48553;50.766;2.900;2023-04-08T06:27:20;101779.03;;;8.08;82.09
60852;BME280;48553;50.766;2.900;2023-04-08T06:30:20;101783.16;;;8.06;82.42
60852;BME280;48553;50.766;2.900;2023-04-08T06:33:21;101784.47;;;8.08;82.12
60852;BME280;48553;50.766;2.900;2023-04-08T06:36:21;101789.38;;;8.11;82.03
60852;BME280;48553;50.766;2.900;2023-04-08T06:39:22;101786.94;;;8.10;82.19
60852;BME280;48553;50.766;2.900;2023-04-08T06:42:22;101792.09;;;8.11;82.25
60852;BME280;48553;50.766;2.900;2023-04-08T06:45:23;101801.09;;;8.12;82.50
60852;BME280;48553;50.766;2.900;2023-04-08T06:48:24;101803.22;;;8.15;82.17
60852;BME280;48553;50.766;2.900;2023-04-08T06:51:29;101803.03;;;8.11;82.38
60852;BME280;48553;50.766;2.900;2023-04-08T06:54:30;101804.88;;;8.16;82.25
60852;BME280;48553;50.766;2.900;2023-04-08T06:57:30;101814.16;;;8.15;82.38
60852;BME280;48553;50.766;2.900;2023-04-08T07:00:31;101810.34;;;8.16;82.53
60852;BME280;48553;50.766;2.900;2023-04-08T07:03:31;101824.78;;;8.16;82.62
60852;BME280;48553;50.766;2.900;2023-04-08T07:06:32;101819.34;;;8.16;82.68
60852;BME280;48553;50.766;2.900;2023-04-08T07:09:32;101824.19;;;8.20;82.36
60852;BME280;48553;50.766;2.900;2023-04-08T07:12:32;101827.25;;;8.18;82.49
60852;BME280;48553;50.766;2.900;2023-04-08T07:15:33;101824.19;;;8.20;82.60
60852;BME280;48553;50.766;2.900;2023-04-08T07:18:33;101828.56;;;8.21;83.02
60852;BME280;48553;50.766;2.900;2023-04-08T07:21:34;101825.75;;;8.26;82.67
60852;BME280;48553;50.766;2.900;2023-04-08T07:24:34;101840.81;;;8.23;82.88
60852;BME280;48553;50.766;2.900;2023-04-08T07:27:34;101832.03;;;8.26;82.80
60852;BME280;48553;50.766;2.900;2023-04-08T07:30:35;101838.31;;;8.27;82.75
60852;BME280;48553;50.766;2.900;2023-04-08T07:33:36;101845.69;;;8.26;83.05
60852;BME280;48553;50.766;2.900;2023-04-08T07:36:36;101850.59;;;8.29;83.01
60852;BME280;48553;50.766;2.900;2023-04-08T07:39:37;101848.38;;;8.31;82.97
60852;BME280;48553;50.766;2.900;2023-04-08T07:42:38;101847.78;;;8.34;82.80
60852;BME280;48553;50.766;2.900;2023-04-08T07:45:38;101848.06;;;8.33;83.04
60852;BME280;48553;50.766;2.900;2023-04-08T07:48:38;101860.84;;;8.37;82.91
60852;BME280;48553;50.766;2.900;2023-04-08T07:51:39;101857.03;;;8.39;82.60
60852;BME280;48553;50.766;2.900;2023-04-08T07:54:39;101864.41;;;8.38;83.21
60852;BME280;48553;50.766;2.900;2023-04-08T07:57:41;101869.03;;;8.43;82.87
60852;BME280;48553;50.766;2.900;2023-04-08T08:00:41;101864.38;;;8.43;82.80
60852;BME280;48553;50.766;2.900;2023-04-08T08:03:42;101873.38;;;8.44;82.75
60852;BME280;48553;50.766;2.900;2023-04-08T08:06:42;101879.06;;;8.47;82.69
60852;BME280;48553;50.766;2.900;2023-04-08T08:09:43;101874.94;;;8.50;82.33
60852;BME280;48553;50.766;2.900;2023-04-08T08:12:43;101872.41;;;8.53;82.52
60852;BME280;48553;50.766;2.900;2023-04-08T08:15:43;101863.63;;;8.56;82.30
60852;BME280;48553;50.766;2.900;2023-04-08T08:18:44;101869.31;;;8.60;82.15
60852;BME280;48553;50.766;2.900;2023-04-08T08:21:44;101865.16;;;8.63;82.05
60852;BME280;48553;50.766;2.900;2023-04-08T08:24:45;101860.97;;;8.70;81.85
60852;BME280;48553;50.766;2.900;2023-04-08T08:27:46;101864.53;;;8.71;81.97
60852;BME280;48553;50.766;2.900;2023-04-08T08:30:46;101859.50;;;8.78;81.47
60852;BME280;48553;50.766;2.900;2023-04-08T08:33:48;101862.47;;;8.82;82.03
60852;BME280;48553;50.766;2.900;2023-04-08T08:36:48;101860.97;;;8.89;81.47
60852;BME280;48553;50.766;2.900;2023-04-08T08:39:49;101868.66;;;9.06;80.84
60852;BME280;48553;50.766;2.900;2023-04-08T08:42:50;101863.34;;;9.29;80.08
60852;BME280;48553;50.766;2.900;2023-04-08T08:45:53;101858.47;;;9.58;80.14
60852;BME280;48553;50.766;2.900;2023-04-08T08:48:54;101854.31;;;9.75;80.21
60852;BME280;48553;50.766;2.900;2023-04-08T08:51:55;101850.38;;;9.95;80.32
60852;BME280;48553;50.766;2.900;2023-04-08T08:54:58;101851.88;;;10.15;79.66
60852;BME280;48553;50.766;2.900;2023-04-08T08:57:59;101851.06;;;10.28;79.29
60852;BME280;48553;50.766;2.900;2023-04-08T09:01:00;101853.22;;;10.45;79.24
60852;BME280;48553;50.766;2.900;2023-04-08T09:04:09;101855.72;;;10.55;79.31
60852;BME280;48553;50.766;2.900;2023-04-08T09:07:10;101855.88;;;10.73;79.11
60852;BME280;48553;50.766;2.900;2023-04-08T09:10:14;101850.72;;;10.94;78.96
60852;BME280;48553;50.766;2.900;2023-04-08T09:13:14;101861.81;;;11.11;78.64
60852;BME280;48553;50.766;2.900;2023-04-08T09:16:17;101857.38;;;11.24;78.58
60852;BME280;48553;50.766;2.900;2023-04-08T09:19:19;101861.81;;;11.34;78.26
60852;BME280;48553;50.766;2.900;2023-04-08T09:22:19;101855.09;;;11.48;78.64
60852;BME280;48553;50.766;2.900;2023-04-08T09:25:31;101868.88;;;11.57;78.35
60852;BME280;48553;50.766;2.900;2023-04-08T09:28:31;101869.47;;;11.77;78.15
60852;BME280;48553;50.766;2.900;2023-04-08T09:34:37;101866.75;;;12.25;77.57
60852;BME280;48553;50.766;2.900;2023-04-08T09:37:37;101878.28;;;12.36;77.25
60852;BME280;48553;50.766;2.900;2023-04-08T09:40:39;101880.09;;;12.49;77.52
60852;BME280;48553;50.766;2.900;2023-04-08T09:43:47;101880.78;;;12.81;78.09
60852;BME280;48553;50.766;2.900;2023-04-08T09:49:54;101892.09;;;13.06;77.52
60852;BME280;48553;50.766;2.900;2023-04-08T09:53:00;101883.31;;;13.21;76.65
60852;BME280;48553;50.766;2.900;2023-04-08T09:56:06;101876.22;;;13.11;76.41
60852;BME280;48553;50.766;2.900;2023-04-08T09:59:13;101871.38;;;13.00;76.19
60852;BME280;48553;50.766;2.900;2023-04-08T10:02:24;101884.00;;;12.92;75.88
60852;BME280;48553;50.766;2.900;2023-04-08T10:05:29;101883.34;;;12.95;75.30
60852;BME280;48553;50.766;2.900;2023-04-08T10:08:30;101887.72;;;13.05;75.24
60852;BME280;48553;50.766;2.900;2023-04-08T10:11:32;101880.91;;;13.11;75.08
60852;BME280;48553;50.766;2.900;2023-04-08T10:14:34;101869.25;;;13.05;74.26
60852;BME280;48553;50.766;2.900;2023-04-08T10:17:34;101882.88;;;13.02;73.65
60852;BME280;48553;50.766;2.900;2023-04-08T10:23:55;101884.47;;;12.94;72.29
60852;BME280;48553;50.766;2.900;2023-04-08T10:26:58;101885.31;;;12.94;72.50
60852;BME280;48553;50.766;2.900;2023-04-08T10:29:58;101884.00;;;12.92;72.40
60852;BME280;48553;50.766;2.900;2023-04-08T10:32:59;101879.47;;;12.96;71.91
60852;BME280;48553;50.766;2.900;2023-04-08T10:39:09;101870.81;;;13.58;72.43
60852;BME280;48553;50.766;2.900;2023-04-08T10:42:11;101870.63;;;13.72;73.40
60852;BME280;48553;50.766;2.900;2023-04-08T10:45:15;101877.19;;;13.89;75.01
60852;BME280;48553;50.766;2.900;2023-04-08T10:48:18;101878.97;;;13.93;73.68
60852;BME280;48553;50.766;2.900;2023-04-08T10:51:19;101877.63;;;13.99;73.49
60852;BME280;48553;50.766;2.900;2023-04-08T10:54:19;101872.47;;;13.89;72.11
60852;BME280;48553;50.766;2.900;2023-04-08T10:57:23;101888.88;;;13.86;72.22
60852;BME280;48553;50.766;2.900;2023-04-08T11:00:33;101884.00;;;13.83;71.91
60852;BME280;48553;50.766;2.900;2023-04-08T11:03:34;101878.56;;;13.74;71.77
60852;BME280;48553;50.766;2.900;2023-04-08T11:06:36;101875.16;;;13.68;70.62
60852;BME280;48553;50.766;2.900;2023-04-08T11:09:37;101873.22;;;13.60;70.79
60852;BME280;48553;50.766;2.900;2023-04-08T11:12:40;101874.22;;;13.55;72.08
60852;BME280;48553;50.766;2.900;2023-04-08T11:15:41;101876.84;;;13.52;70.51
60852;BME280;48553;50.766;2.900;2023-04-08T11:18:41;101859.81;;;13.50;71.98
60852;BME280;48553;50.766;2.900;2023-04-08T11:21:42;101869.88;;;13.46;72.51
60852;BME280;48553;50.766;2.900;2023-04-08T11:24:43;101872.50;;;13.42;73.03
60852;BME280;48553;50.766;2.900;2023-04-08T11:27:44;101865.84;;;13.43;72.16
60852;BME280;48553;50.766;2.900;2023-04-08T11:30:45;101866.34;;;13.36;72.52
60852;BME280;48553;50.766;2.900;2023-04-08T11:33:48;101863.25;;;13.38;72.06
60852;BME280;48553;50.766;2.900;2023-04-08T11:36:52;101869.75;;;13.33;70.24
60852;BME280;48553;50.766;2.900;2023-04-08T11:39:53;101855.00;;;13.38;71.93
60852;BME280;48553;50.766;2.900;2023-04-08T11:42:56;101864.72;;;13.35;73.44
60852;BME280;48553;50.766;2.900;2023-04-08T11:45:56;101862.47;;;13.38;73.68
60852;BME280;48553;50.766;2.900;2023-04-08T11:49:04;101853.06;;;13.39;71.37
60852;BME280;48553;50.766;2.900;2023-04-08T11:52:05;101859.19;;;13.44;69.95
60852;BME280;48553;50.766;2.900;2023-04-08T11:55:06;101852.22;;;13.47;68.76
60852;BME280;48553;50.766;2.900;2023-04-08T11:58:07;101856.28;;;13.49;69.40
60852;BME280;48553;50.766;2.900;2023-04-08T12:01:07;101860.31;;;13.52;68.08
60852;BME280;48553;50.766;2.900;2023-04-08T12:04:09;101859.16;;;13.53;70.10
60852;BME280;48553;50.766;2.900;2023-04-08T12:07:10;101850.56;;;13.54;70.92
60852;BME280;48553;50.766;2.900;2023-04-08T12:10:10;101856.88;;;13.64;71.08
60852;BME280;48553;50.766;2.900;2023-04-08T12:13:11;101850.38;;;13.68;69.77
60852;BME280;48553;50.766;2.900;2023-04-08T12:16:12;101855.69;;;13.73;71.17
60852;BME280;48553;50.766;2.900;2023-04-08T12:19:13;101843.34;;;13.79;70.52
60852;BME280;48553;50.766;2.900;2023-04-08T12:22:13;101847.72;;;13.81;71.24
60852;BME280;48553;50.766;2.900;2023-04-08T12:25:14;101852.78;;;13.78;71.58
60852;BME280;48553;50.766;2.900;2023-04-08T12:28:14;101850.00;;;13.78;70.28
60852;BME280;48553;50.766;2.900;2023-04-08T12:31:15;101846.63;;;13.73;71.75
60852;BME280;48553;50.766;2.900;2023-04-08T12:34:15;101850.66;;;13.75;70.50
60852;BME280;48553;50.766;2.900;2023-04-08T12:37:16;101851.00;;;13.74;70.34
60852;BME280;48553;50.766;2.900;2023-04-08T12:40:16;101843.69;;;13.69;72.86
60852;BME280;48553;50.766;2.900;2023-04-08T12:43:18;101854.91;;;13.64;70.71
60852;BME280;48553;50.766;2.900;2023-04-08T12:46:18;101851.19;;;13.60;70.93
60852;BME280;48553;50.766;2.900;2023-04-08T12:49:19;101852.34;;;13.59;69.79
60852;BME280;48553;50.766;2.900;2023-04-08T12:52:19;101855.59;;;13.61;71.56
60852;BME280;48553;50.766;2.900;2023-04-08T12:55:20;101844.56;;;13.61;70.54
60852;BME280;48553;50.766;2.900;2023-04-08T12:58:23;101853.94;;;13.60;70.46
60852;BME280;48553;50.766;2.900;2023-04-08T13:01:24;101849.78;;;13.54;70.47
60852;BME280;48553;50.766;2.900;2023-04-08T13:04:25;101855.41;;;13.57;70.98
60852;BME280;48553;50.766;2.900;2023-04-08T13:07:25;101844.56;;;13.61;73.18
60852;BME280;48553;50.766;2.900;2023-04-08T13:10:26;101847.81;;;13.63;72.16
60852;BME280;48553;50.766;2.900;2023-04-08T13:13:26;101852.16;;;13.64;70.05
60852;BME280;48553;50.766;2.900;2023-04-08T13:16:27;101843.38;;;13.71;70.36
60852;BME280;48553;50.766;2.900;2023-04-08T13:19:28;101839.34;;;13.68;70.52
60852;BME280;48553;50.766;2.900;2023-04-08T13:22:29;101844.06;;;13.68;73.17
60852;BME280;48553;50.766;2.900;2023-04-08T13:25:29;101848.28;;;13.65;71.12
60852;BME280;48553;50.766;2.900;2023-04-08T13:28:30;101855.59;;;13.61;72.32
60852;BME280;48553;50.766;2.900;2023-04-08T13:31:30;101858.03;;;13.54;73.03
60852;BME280;48553;50.766;2.900;2023-04-08T13:34:30;101855.13;;;13.42;71.16
60852;BME280;48553;50.766;2.900;2023-04-08T13:37:31;101849.50;;;13.38;73.64
60852;BME280;48553;50.766;2.900;2023-04-08T13:40:31;101849.31;;;13.34;74.65
60852;BME280;48553;50.766;2.900;2023-04-08T13:43:32;101850.31;;;13.30;74.50
60852;BME280;48553;50.766;2.900;2023-04-08T13:46:32;101858.88;;;13.28;74.14
60852;BME280;48553;50.766;2.900;2023-04-08T13:49:33;101850.78;;;13.23;74.38
60852;BME280;48553;50.766;2.900;2023-04-08T13:52:33;101849.66;;;13.15;74.20
60852;BME280;48553;50.766;2.900;2023-04-08T13:55:34;101848.88;;;13.15;74.31
60852;BME280;48553;50.766;2.900;2023-04-08T13:58:34;101847.22;;;13.14;74.41
60852;BME280;48553;50.766;2.900;2023-04-08T14:01:35;101852.59;;;13.10;74.40
60852;BME280;48553;50.766;2.900;2023-04-08T14:04:36;101849.69;;;13.07;73.95
60852;BME280;48553;50.766;2.900;2023-04-08T14:07:36;101850.81;;;13.06;74.02
60852;BME280;48553;50.766;2.900;2023-04-08T14:10:37;101853.56;;;13.06;74.09
60852;BME280;48553;50.766;2.900;2023-04-08T14:13:37;101846.75;;;13.03;73.81
60852;BME280;48553;50.766;2.900;2023-04-08T14:16:37;101846.25;;;13.01;74.42
60852;BME280;48553;50.766;2.900;2023-04-08T14:19:38;101840.31;;;12.99;74.03
60852;BME280;48553;50.766;2.900;2023-04-08T14:22:38;101843.69;;;12.96;73.98
60852;BME280;48553;50.766;2.900;2023-04-08T14:25:39;101841.91;;;12.91;73.38
60852;BME280;48553;50.766;2.900;2023-04-08T14:28:39;101837.56;;;12.90;73.72
60852;BME280;48553;50.766;2.900;2023-04-08T14:31:40;101827.66;;;12.89;73.65
60852;BME280;48553;50.766;2.900;2023-04-08T14:34:41;101837.56;;;12.90;73.93
60852;BME280;48553;50.766;2.900;2023-04-08T14:37:41;101823.78;;;12.90;73.84
60852;BME280;48553;50.766;2.900;2023-04-08T14:40:41;101825.75;;;12.90;73.84
60852;BME280;48553;50.766;2.900;2023-04-08T14:43:42;101824.09;;;12.89;74.17
60852;BME280;48553;50.766;2.900;2023-04-08T14:46:42;101822.50;;;12.88;74.39
60852;BME280;48553;50.766;2.900;2023-04-08T14:49:43;101823.63;;;12.87;73.95
60852;BME280;48553;50.766;2.900;2023-04-08T14:52:43;101823.94;;;12.85;73.94
60852;BME280;48553;50.766;2.900;2023-04-08T14:55:44;101823.94;;;12.85;74.04
60852;BME280;48553;50.766;2.900;2023-04-08T14:58:45;101822.34;;;12.84;74.34
60852;BME280;48553;50.766;2.900;2023-04-08T15:01:45;101815.69;;;12.85;74.60
60852;BME280;48553;50.766;2.900;2023-04-08T15:04:46;101817.31;;;12.86;74.39
60852;BME280;48553;50.766;2.900;2023-04-08T15:07:46;101816.84;;;12.84;74.33
60852;BME280;48553;50.766;2.900;2023-04-08T15:10:47;101811.66;;;12.83;74.04
60852;BME280;48553;50.766;2.900;2023-04-08T15:13:48;101817.97;;;12.83;74.52
60852;BME280;48553;50.766;2.900;2023-04-08T15:16:48;101816.03;;;12.84;74.53
60852;BME280;48553;50.766;2.900;2023-04-08T15:19:49;101816.34;;;12.82;74.36
60852;BME280;48553;50.766;2.900;2023-04-08T15:22:49;101816.66;;;12.81;74.33
60852;BME280;48553;50.766;2.900;2023-04-08T15:25:49;101817.50;;;12.81;74.38
60852;BME280;48553;50.766;2.900;2023-04-08T15:28:50;101815.84;;;12.80;74.77
60852;BME280;48553;50.766;2.900;2023-04-08T15:31:51;101821.38;;;12.80;74.73
60852;BME280;48553;50.766;2.900;2023-04-08T15:34:52;101817.81;;;12.80;74.92
60852;BME280;48553;50.766;2.900;2023-04-08T15:37:52;101824.09;;;12.80;74.64
60852;BME280;48553;50.766;2.900;2023-04-08T15:40:53;101817.81;;;12.80;74.68
60852;BME280;48553;50.766;2.900;2023-04-08T15:43:53;101817.31;;;12.78;74.48
60852;BME280;48553;50.766;2.900;2023-04-08T15:46:55;101811.00;;;12.77;74.77
60852;BME280;48553;50.766;2.900;2023-04-08T15:49:55;101806.63;;;12.76;74.89
60852;BME280;48553;50.766;2.900;2023-04-08T15:52:56;101807.78;;;12.75;74.98
60852;BME280;48553;50.766;2.900;2023-04-08T15:55:57;101816.84;;;12.75;75.30
60852;BME280;48553;50.766;2.900;2023-04-08T15:58:57;101819.59;;;12.75;75.05
60852;BME280;48553;50.766;2.900;2023-04-08T16:01:58;101812.78;;;12.73;75.37
60852;BME280;48553;50.766;2.900;2023-04-08T16:04:58;101818.28;;;12.73;75.21
60852;BME280;48553;50.766;2.900;2023-04-08T16:07:58;101818.59;;;12.71;75.22
60852;BME280;48553;50.766;2.900;2023-04-08T16:11:00;101814.75;;;12.72;75.31
60852;BME280;48553;50.766;2.900;2023-04-08T16:14:01;101815.53;;;12.73;75.82